Time;durP1;ratioP1;P1;durP2;ratioP2;P2;SDS_P1;SDS_P2;PMS_P1;PMS_P2;Temp;Humidity;BMP_temperature;BMP_pressure;BME280_temperature;BME280_humidity;BME280_pressure;Samples;Min_cycle;Max_cycle;Signal;HPM_P1;HPM_P2
2022/08/19 00:02:09;;;;;;;10.27;5.80;;;;;;;29.43;34.22;99260.44;7786021;32;37680;-77
2022/08/19 00:06:27;;;;;;;10.68;6.07;;;;;;;29.52;34.01;99266.38;7792756;32;39778;-77
2022/08/19 00:10:43;;;;;;;12.68;6.57;;;;;;;29.27;34.40;99261.75;7793394;32;39374;-77
2022/08/19 00:14:59;;;;;;;10.48;5.78;;;;;;;29.43;34.15;99263.25;7792814;32;37835;-77
2022/08/19 00:19:16;;;;;;;10.25;5.95;;;;;;;29.20;34.57;99253.34;7792770;32;37759;-76
2022/08/19 00:23:34;;;;;;;12.50;6.53;;;;;;;29.19;34.57;99243.34;7792870;32;39368;-77
2022/08/19 00:27:50;;;;;;;16.40;6.55;;;;;;;28.96;35.04;99241.06;7792816;32;39971;-76
2022/08/19 00:32:07;;;;;;;12.85;6.32;;;;;;;28.72;35.68;99238.00;7773656;32;37655;-73
2022/08/19 00:36:25;;;;;;;11.63;6.22;;;;;;;28.90;35.20;99245.50;7752066;32;37721;-77
2022/08/19 00:40:46;;;;;;;9.57;6.37;;;;;;;28.86;35.30;99241.94;7751667;32;39279;-76
2022/08/19 00:45:08;;;;;;;14.80;6.60;;;;;;;28.82;35.42;99242.75;7751666;32;40818;-76
2022/08/19 00:49:41;;;;;;;11.80;6.47;;;;;;;28.67;35.77;99240.44;7765210;32;37966;-76
2022/08/19 00:53:58;;;;;;;11.00;6.65;;;;;;;28.64;35.90;99239.22;7765357;32;36923;-77
2022/08/19 00:58:17;;;;;;;12.10;6.18;;;;;;;28.73;35.64;99233.97;7765313;32;38976;-76
2022/08/19 01:02:33;;;;;;;12.93;6.53;;;;;;;28.35;36.46;99241.31;7776089;32;39147;-77
2022/08/19 01:06:49;;;;;;;14.15;6.50;;;;;;;28.42;36.27;99233.69;7792088;32;37624;-77
2022/08/19 01:11:06;;;;;;;10.55;6.03;;;;;;;28.33;36.54;99241.72;7778382;32;37013;-77
2022/08/19 01:15:30;;;;;;;13.35;6.30;;;;;;;28.48;36.08;99232.06;7766864;32;41369;-76
2022/08/19 01:19:46;;;;;;;12.05;6.60;;;;;;;28.35;36.42;99230.91;7751880;32;39884;-77
2022/08/19 01:24:03;;;;;;;9.02;6.12;;;;;;;28.25;36.66;99234.53;7764879;32;38746;-77
2022/08/19 01:28:27;;;;;;;14.18;6.03;;;;;;;28.21;36.67;99231.75;7764888;32;36558;-77
2022/08/19 01:32:56;;;;;;;15.32;6.47;;;;;;;28.21;36.63;99228.16;7764892;32;38972;-76
2022/08/19 01:37:13;;;;;;;9.70;6.40;;;;;;;28.06;37.05;99213.38;7764695;32;40732;-78
2022/08/19 01:41:40;;;;;;;12.65;6.05;;;;;;;28.15;36.77;99215.75;7764644;32;37781;-77
2022/08/19 01:45:56;;;;;;;11.80;6.40;;;;;;;28.06;36.99;99214.22;7791355;32;39746;-76
2022/08/19 01:50:13;;;;;;;11.60;6.47;;;;;;;28.03;37.06;99209.41;7791542;32;40041;-77
2022/08/19 01:54:29;;;;;;;12.37;6.65;;;;;;;27.88;37.37;99196.59;7788149;32;39579;-77
2022/08/19 01:58:51;;;;;;;13.20;6.62;;;;;;;27.93;37.31;99192.63;7764220;32;37932;-77
2022/08/19 02:03:09;;;;;;;10.30;6.25;;;;;;;27.77;37.70;99198.63;7750896;32;36755;-77
2022/08/19 02:07:25;;;;;;;11.90;6.68;;;;;;;27.61;38.04;99194.25;7763858;32;39195;-77
2022/08/19 02:11:41;;;;;;;10.25;6.07;;;;;;;27.86;37.48;99182.22;7764700;32;40707;-77
2022/08/19 02:15:57;;;;;;;10.15;6.53;;;;;;;27.52;38.31;99168.66;7749605;32;36349;-77
2022/08/19 02:20:15;;;;;;;11.82;7.55;;;;;;;27.53;38.34;99178.69;7763804;32;37062;-77
2022/08/19 02:24:31;;;;;;;14.25;6.35;;;;;;;27.66;37.95;99179.03;7763748;32;39754;-77
2022/08/19 02:28:48;;;;;;;8.77;5.97;;;;;;;27.48;38.44;99196.66;7765262;32;40512;-77
2022/08/19 02:33:04;;;;;;;13.77;6.72;;;;;;;27.83;37.67;99191.41;7766813;32;38602;-76
2022/08/19 02:42:09;;;;;;;11.98;6.22;;;;;;;27.45;38.37;99179.88;7732406;32;38836;-77
2022/08/19 02:46:30;;;;;;;12.93;6.68;;;;;;;27.39;38.53;99182.28;7753060;32;40732;-76
2022/08/19 02:50:48;;;;;;;10.98;6.45;;;;;;;27.38;38.60;99185.47;7766737;32;37980;-76
2022/08/19 02:55:08;;;;;;;11.43;6.80;;;;;;;27.20;39.00;99180.66;7766728;32;36994;-76
2022/08/19 02:59:26;;;;;;;12.63;6.85;;;;;;;27.17;38.99;99187.84;7766699;32;39327;-77
2022/08/19 03:03:42;;;;;;;11.05;6.93;;;;;;;27.13;39.15;99220.62;7767333;32;39934;-77
2022/08/19 03:07:58;;;;;;;11.35;6.53;;;;;;;27.35;38.69;99224.25;7766355;32;37883;-77
2022/08/19 03:12:14;;;;;;;13.27;6.22;;;;;;;27.09;39.22;99233.00;7780334;32;37630;-75
2022/08/19 03:16:35;;;;;;;9.50;6.18;;;;;;;27.05;39.30;99223.81;7793664;32;38982;-73
2022/08/19 03:20:54;;;;;;;15.82;6.43;;;;;;;27.23;39.07;99229.41;7787514;32;39624;-74
2022/08/19 03:25:11;;;;;;;10.85;6.12;;;;;;;27.22;39.06;99227.81;7766337;32;38616;-74
2022/08/19 03:29:31;;;;;;;11.10;6.85;;;;;;;27.19;39.02;99234.22;7766253;32;37807;-75
2022/08/19 03:33:47;;;;;;;11.50;6.95;;;;;;;27.10;39.08;99232.59;7766392;32;39887;-76
2022/08/19 03:38:06;;;;;;;11.63;6.10;;;;;;;27.11;39.07;99238.97;7765937;32;39019;-73
2022/08/19 03:42:22;;;;;;;10.90;6.07;;;;;;;27.07;39.06;99240.97;7766045;32;37890;-71
2022/08/19 03:47:00;;;;;;;16.75;6.80;;;;;;;27.07;39.12;99233.38;7765540;32;38885;-73
2022/08/19 03:51:22;;;;;;;14.48;6.72;;;;;;;27.04;39.13;99233.38;7766088;32;40131;-73
2022/08/19 03:55:45;;;;;;;11.65;6.68;;;;;;;27.01;39.24;99236.97;7766007;32;40848;-73
2022/08/19 04:00:05;;;;;;;9.40;5.95;;;;;;;26.82;39.72;99238.94;7766146;32;37953;-73
2022/08/19 04:04:29;;;;;;;12.88;6.47;;;;;;;26.87;39.64;99246.94;7793271;32;37047;-74
2022/08/19 04:08:48;;;;;;;14.52;6.55;;;;;;;27.03;39.21;99260.56;7790154;32;39237;-74
2022/08/19 04:13:05;;;;;;;12.18;6.43;;;;;;;26.97;39.33;99256.53;7765829;32;40331;-79
2022/08/19 04:17:22;;;;;;;10.93;6.25;;;;;;;27.04;39.25;99244.56;7761284;32;38432;-80
2022/08/19 04:21:38;;;;;;;10.43;6.78;;;;;;;27.09;39.20;99255.38;7764709;32;36962;-80
2022/08/19 04:25:55;;;;;;;11.12;6.10;;;;;;;27.18;38.99;99266.97;7776313;32;39168;-78
2022/08/19 04:30:12;;;;;;;13.45;6.37;;;;;;;27.11;39.20;99266.97;7777998;32;39507;-78
2022/08/19 04:34:29;;;;;;;11.52;6.37;;;;;;;27.13;39.23;99270.97;7780295;32;37610;-75
2022/08/19 04:38:46;;;;;;;10.38;5.78;;;;;;;27.28;38.95;99252.22;7791338;32;37093;-75
2022/08/19 04:43:02;;;;;;;11.10;5.82;;;;;;;27.21;39.23;99254.97;7773891;32;39888;-76
2022/08/19 04:47:18;;;;;;;11.75;6.10;;;;;;;27.38;38.92;99263.84;7773596;32;39935;-75
2022/08/19 04:51:55;;;;;;;12.48;6.15;;;;;;;27.47;38.90;99264.22;7791052;32;38325;-76
2022/08/19 04:56:14;;;;;;;10.85;6.25;;;;;;;27.35;39.19;99257.84;7791335;32;36941;-76
2022/08/19 05:00:30;;;;;;;11.55;6.82;;;;;;;27.37;39.37;99262.22;7789087;32;39868;-75
2022/08/19 05:04:50;;;;;;;15.35;6.62;;;;;;;27.50;38.91;99267.03;7788639;32;41567;-74
2022/08/19 05:09:06;;;;;;;11.48;6.47;;;;;;;27.65;38.59;99270.66;7788937;32;38279;-74
2022/08/19 05:13:23;;;;;;;11.48;6.30;;;;;;;27.48;39.02;99269.44;7776407;32;36541;-77
2022/08/19 05:22:31;;;;;;;9.30;6.43;;;;;;;27.49;39.12;99257.06;7765065;32;39691;-77
2022/08/19 05:26:52;;;;;;;11.73;6.35;;;;;;;27.71;38.86;99248.63;7766653;32;37935;-78
2022/08/19 05:31:08;;;;;;;9.32;6.43;;;;;;;27.84;38.50;99257.44;7768750;32;37567;-75
2022/08/19 05:35:24;;;;;;;12.27;6.25;;;;;;;27.99;37.84;99250.62;7778021;32;39121;-78
2022/08/19 05:39:41;;;;;;;12.43;6.43;;;;;;;28.21;37.39;99264.59;7763375;32;39736;-78
2022/08/19 05:43:58;;;;;;;8.88;5.72;;;;;;;28.03;38.03;99276.63;7763341;32;38567;-78
2022/08/19 05:48:14;;;;;;;10.00;5.53;;;;;;;28.35;37.26;99272.94;7762249;32;37601;-77
2022/08/19 05:52:30;;;;;;;10.45;5.55;;;;;;;28.52;36.80;99276.09;7761122;32;38955;-77
2022/08/19 05:56:48;;;;;;;10.00;5.80;;;;;;;28.66;36.39;99267.66;7760843;32;40446;-77
2022/08/19 06:01:10;;;;;;;8.88;5.50;;;;;;;28.86;35.82;99265.16;7760599;32;37738;-78
2022/08/19 06:05:26;;;;;;;9.63;5.75;;;;;;;28.53;36.55;99272.09;7761070;32;36981;-77
2022/08/19 06:09:42;;;;;;;12.13;5.62;;;;;;;28.84;35.85;99267.59;7764092;32;39201;-77
2022/08/19 06:14:17;;;;;;;10.80;5.80;;;;;;;29.19;34.94;99272.22;7764031;32;40082;-77
2022/08/19 06:18:34;;;;;;;8.82;5.37;;;;;;;28.99;35.19;99271.91;7763780;32;38048;-77
2022/08/19 06:22:51;;;;;;;8.73;5.40;;;;;;;29.01;35.54;99272.28;7763868;32;37046;-77
2022/08/19 06:27:07;;;;;;;8.63;5.53;;;;;;;29.34;34.81;99266.50;7763719;32;39861;-77
2022/08/19 06:31:27;;;;;;;11.55;5.80;;;;;;;29.48;34.51;99271.22;7763513;32;40756;-77
2022/08/19 06:35:43;;;;;;;9.15;5.47;;;;;;;29.35;34.31;99282.91;7749893;32;38077;-77
2022/08/19 06:40:05;;;;;;;11.40;5.37;;;;;;;29.62;34.27;99278.72;7763522;32;38561;-78
2022/08/19 06:44:25;;;;;;;10.90;5.93;;;;;;;29.74;34.15;99270.59;7763434;32;39316;-78
2022/08/19 06:48:42;;;;;;;9.40;5.47;;;;;;;29.72;34.37;99269.41;7763050;32;39990;-78
2022/08/19 06:53:02;;;;;;;12.90;5.57;;;;;;;30.02;33.52;99277.16;7763073;32;39275;-78
2022/08/19 06:57:19;;;;;;;9.00;5.12;;;;;;;30.34;32.95;99259.19;7763006;32;36994;-78
2022/08/19 07:01:41;;;;;;;9.82;5.40;;;;;;;30.48;32.68;99256.22;7762853;32;39757;-78
2022/08/19 07:06:02;;;;;;;10.93;5.57;;;;;;;30.17;33.23;99265.78;7761784;32;39998;-77
2022/08/19 07:10:21;;;;;;;11.23;5.18;;;;;;;30.13;33.33;99282.69;7761869;32;38098;-76
2022/08/19 07:14:40;;;;;;;9.57;5.12;;;;;;;30.21;33.14;99284.19;7764679;32;36989;-76
2022/08/19 07:18:57;;;;;;;9.10;4.57;;;;;;;30.41;33.27;99292.87;7766862;32;39780;-78
2022/08/19 07:23:14;;;;;;;9.05;5.72;;;;;;;30.71;32.70;99294.91;7783128;32;39923;-79
2022/08/19 07:27:31;;;;;;;8.65;4.97;;;;;;;30.43;33.08;99292.44;7770862;32;37854;-78
2022/08/19 07:31:49;;;;;;;8.57;5.53;;;;;;;30.91;31.90;99285.81;7766199;32;37688;-78
2022/08/19 07:36:10;;;;;;;9.00;5.22;;;;;;;30.96;32.14;99279.75;7774822;32;39238;-78
2022/08/19 07:40:27;;;;;;;11.10;5.37;;;;;;;31.24;31.89;99269.28;7783700;32;39735;-78
2022/08/19 07:44:43;;;;;;;12.52;5.07;;;;;;;31.19;31.87;99255.69;7782760;32;37567;-78
2022/08/19 07:49:06;;;;;;;9.05;4.97;;;;;;;31.50;31.31;99259.25;7779858;32;37140;-78
2022/08/19 07:53:24;;;;;;;9.30;5.30;;;;;;;32.27;30.13;99270.78;7765965;32;38986;-78
2022/08/19 07:57:40;;;;;;;10.02;5.18;;;;;;;32.60;28.96;99268.97;7785588;32;40848;-76
2022/08/19 08:01:59;;;;;;;9.63;4.62;;;;;;;32.20;29.41;99280.19;7792720;32;37886;-78
2022/08/19 08:10:50;;;;;;;10.38;4.93;;;;;;;32.82;28.32;99280.56;7782967;32;39249;-77
2022/08/19 08:15:18;;;;;;;10.10;5.10;;;;;;;32.92;28.53;99275.94;7765468;32;40831;-78
2022/08/19 08:19:34;;;;;;;12.30;5.20;;;;;;;33.38;28.04;99274.09;7765544;32;37861;-78
2022/08/19 08:23:51;;;;;;;8.45;4.70;;;;;;;33.23;27.36;99262.34;7765416;32;36957;-77
2022/08/19 08:28:10;;;;;;;8.10;4.45;;;;;;;33.59;26.81;99267.13;7765453;32;39310;-77
2022/08/19 08:32:33;;;;;;;9.85;4.62;;;;;;;33.43;27.00;99269.97;7765371;32;39958;-76
2022/08/19 08:36:51;;;;;;;11.48;5.03;;;;;;;34.02;26.33;99260.38;7766090;32;37553;-78
2022/08/19 08:41:33;;;;;;;8.70;4.10;;;;;;;34.16;26.60;99258.41;7765432;32;36759;-78
2022/08/19 08:45:56;;;;;;;8.10;4.18;;;;;;;34.66;25.13;99250.53;7766715;32;40127;-78
2022/08/19 08:50:37;;;;;;;8.18;4.22;;;;;;;34.88;24.70;99250.72;7788025;32;40751;-78
2022/08/19 08:54:58;;;;;;;7.32;4.30;;;;;;;34.91;24.89;99238.47;7792151;32;37983;-78
2022/08/19 08:59:24;;;;;;;15.50;4.50;;;;;;;34.93;24.79;99245.28;7787440;32;36930;-77
2022/08/19 09:03:42;;;;;;;8.23;4.60;;;;;;;35.40;24.12;99228.88;7756995;32;39291;-77
2022/08/19 09:08:13;;;;;;;7.12;4.07;;;;;;;35.40;24.06;99232.50;7737601;32;41640;-76
2022/08/19 09:12:44;;;;;;;4.90;3.75;;;;;;;35.08;23.75;99228.66;7753338;32;37921;-80
2022/08/19 09:17:07;;;;;;;7.53;3.80;;;;;;;35.39;23.73;99232.94;7763747;32;37749;-80
2022/08/19 09:21:27;;;;;;;10.20;4.07;;;;;;;35.93;22.54;99220.59;7744289;32;38504;-81
2022/08/19 09:25:48;;;;;;;8.32;3.67;;;;;;;36.24;21.75;99217.84;7739277;32;40064;-81
2022/08/19 09:30:07;;;;;;;6.25;3.67;;;;;;;36.25;21.67;99219.44;7752785;32;37875;-82
2022/08/19 09:34:23;;;;;;;6.43;3.58;;;;;;;36.49;21.81;99221.78;7759016;32;36904;-80
2022/08/19 09:38:42;;;;;;;5.95;4.05;;;;;;;36.65;21.31;99213.06;7761291;32;39286;-80
2022/08/19 09:43:02;;;;;;;15.93;4.10;;;;;;;37.07;20.81;99213.88;7764199;32;40537;-82
2022/08/19 09:47:27;;;;;;;10.52;3.90;;;;;;;36.54;21.09;99207.00;7762742;32;37979;-77
2022/08/19 09:51:48;;;;;;;7.87;3.80;;;;;;;36.66;20.79;99203.28;7764213;32;36001;-78
2022/08/19 09:56:06;;;;;;;5.82;3.80;;;;;;;36.79;20.33;99194.72;7763324;32;39503;-79
2022/08/19 10:00:24;;;;;;;7.10;4.00;;;;;;;36.93;20.21;99199.03;7764408;32;41009;-79
2022/08/19 10:09:17;;;;;;;11.32;4.20;;;;;;;37.57;19.31;99177.75;7754509;32;38529;-76
2022/08/19 10:13:49;;;;;;;7.85;4.15;;;;;;;37.93;19.37;99176.97;7754149;32;39318;-76
2022/08/19 10:18:06;;;;;;;8.93;3.80;;;;;;;37.82;18.92;99184.41;7736151;32;40090;-76
2022/08/19 10:22:23;;;;;;;8.40;4.50;;;;;;;38.27;18.94;99174.25;7750715;32;37626;-76
2022/08/19 10:26:47;;;;;;;6.93;3.75;;;;;;;38.43;18.18;99182.47;7763734;32;36911;-77
2022/08/19 10:31:14;;;;;;;8.23;3.92;;;;;;;38.30;18.80;99179.78;7736652;32;39303;-76
2022/08/19 10:35:34;;;;;;;10.98;3.87;;;;;;;38.41;18.35;99172.81;7736203;32;40800;-76
2022/08/19 10:40:11;;;;;;;7.43;3.92;;;;;;;37.77;18.92;99171.59;7735005;32;38144;-76
2022/08/19 10:44:29;;;;;;;6.78;3.90;;;;;;;38.45;18.64;99157.16;7736479;32;36892;-77
2022/08/19 10:48:47;;;;;;;7.97;3.65;;;;;;;38.71;18.37;99150.28;7761466;32;39254;-78
2022/08/19 10:53:08;;;;;;;6.45;3.95;;;;;;;39.18;17.92;99169.50;7766598;32;40698;-77
2022/08/19 10:57:28;;;;;;;9.98;4.20;;;;;;;39.12;17.39;99162.13;7766219;32;38625;-77
2022/08/19 11:02:09;;;;;;;7.47;3.85;;;;;;;38.77;18.16;99159.75;7766400;32;38146;-77
2022/08/19 11:06:25;;;;;;;11.82;3.78;;;;;;;39.29;17.73;99151.88;7766311;32;40026;-77
2022/08/19 11:10:42;;;;;;;7.45;3.58;;;;;;;39.85;17.46;99142.94;7766136;32;39990;-76
2022/08/19 11:15:10;;;;;;;8.77;3.90;;;;;;;40.31;16.53;99154.69;7766232;32;38467;-77
2022/08/19 11:19:27;;;;;;;10.20;3.92;;;;;;;39.99;16.86;99153.59;7766377;32;37031;-77
2022/08/19 11:23:43;;;;;;;6.60;3.83;;;;;;;40.06;16.85;99150.34;7766154;32;39014;-76
2022/08/19 11:27:59;;;;;;;10.75;4.25;;;;;;;40.12;16.69;99159.81;7765170;32;40928;-76
2022/08/19 11:32:16;;;;;;;7.12;3.78;;;;;;;40.30;16.56;99140.91;7750254;32;37861;-79
2022/08/19 11:36:32;;;;;;;9.20;3.80;;;;;;;40.59;16.71;99151.53;7760881;32;37695;-79
2022/08/19 11:40:55;;;;;;;6.65;3.90;;;;;;;41.01;15.78;99141.78;7764714;32;39100;-80
2022/08/19 11:45:13;;;;;;;8.68;3.87;;;;;;;40.89;15.58;99145.78;7766024;32;39768;-79
2022/08/19 11:49:29;;;;;;;12.25;3.72;;;;;;;40.89;16.07;99152.28;7754344;32;39102;-79
2022/08/19 11:53:46;;;;;;;8.77;3.85;;;;;;;41.10;15.38;99149.44;7757767;32;37868;-79
2022/08/19 11:58:02;;;;;;;5.28;3.47;;;;;;;41.31;15.39;99147.44;7738753;32;39990;-77
2022/08/19 12:02:18;;;;;;;6.20;3.60;;;;;;;41.34;14.95;99146.41;7738392;32;39953;-76
2022/08/19 12:06:37;;;;;;;8.93;3.97;;;;;;;40.73;15.17;99141.34;7763178;32;37677;-76
2022/08/19 12:10:54;;;;;;;10.43;3.97;;;;;;;41.22;15.13;99136.09;7778950;32;36974;-77
2022/08/19 12:15:11;;;;;;;11.45;3.65;;;;;;;40.34;15.75;99132.91;7792418;32;40259;-77
2022/08/19 12:19:28;;;;;;;12.85;4.00;;;;;;;39.87;16.22;99135.44;7791344;32;40005;-76
2022/08/19 12:23:48;;;;;;;7.30;3.58;;;;;;;39.77;16.20;99128.25;7781716;32;37563;-76
2022/08/19 12:28:10;;;;;;;11.82;4.18;;;;;;;39.89;16.39;99118.59;7780405;32;36896;-76
2022/08/19 12:32:26;;;;;;;11.60;3.58;;;;;;;40.04;15.51;99135.00;7765153;32;39232;-77
2022/08/19 12:36:42;;;;;;;10.27;4.07;;;;;;;39.14;16.80;99137.56;7767497;32;39949;-76
2022/08/19 12:41:00;;;;;;;7.95;3.47;;;;;;;39.37;16.69;99140.91;7772221;32;37788;-76
2022/08/19 12:45:16;;;;;;;15.38;3.70;;;;;;;39.51;16.65;99140.19;7774583;32;37011;-76
2022/08/19 12:49:33;;;;;;;8.18;3.47;;;;;;;39.81;16.67;99135.34;7783758;32;39944;-76
2022/08/19 12:54:09;;;;;;;11.73;3.90;;;;;;;39.98;15.93;99127.13;7765480;32;39990;-78
2022/08/19 12:58:26;;;;;;;14.10;4.35;;;;;;;39.57;16.39;99126.84;7764768;32;37958;-78
2022/08/19 13:02:45;;;;;;;9.32;4.10;;;;;;;39.16;16.61;99120.00;7787569;32;36978;-76
2022/08/19 13:07:01;;;;;;;9.93;4.37;;;;;;;39.73;16.59;99110.53;7788548;32;39212;-78
2022/08/19 13:11:24;;;;;;;8.35;4.32;;;;;;;40.34;15.96;99107.22;7766917;32;41253;-76
2022/08/19 13:15:44;;;;;;;7.93;4.15;;;;;;;40.07;15.68;99103.41;7789623;32;38813;-76
2022/08/19 13:20:01;;;;;;;8.27;4.20;;;;;;;39.91;16.36;99104.66;7768914;32;36731;-77
2022/08/19 13:24:18;;;;;;;13.75;4.57;;;;;;;40.03;16.04;99093.47;7764882;32;40046;-76
2022/08/19 13:33:15;;;;;;;12.48;4.72;;;;;;;39.44;16.17;99106.31;7759852;32;39149;-76
2022/08/19 13:37:40;;;;;;;19.10;4.93;;;;;;;39.33;16.37;99103.25;7762893;32;37053;-76
2022/08/19 13:41:58;;;;;;;11.20;4.82;;;;;;;38.86;16.43;99105.56;7763950;32;39099;-77
2022/08/19 13:46:14;;;;;;;9.63;4.47;;;;;;;38.64;16.89;99120.09;7763854;32;39895;-77
2022/08/19 13:50:31;;;;;;;17.87;3.95;;;;;;;37.69;18.26;99171.13;7763504;32;37618;-77
2022/08/19 13:54:48;;;;;;;15.63;3.85;;;;;;;35.28;25.56;99217.09;7748888;32;37554;-77
2022/08/19 13:59:04;;;;;;;11.73;3.30;;;;;;;34.03;28.00;99228.03;7764602;32;39207;-80
2022/08/19 14:03:20;;;;;;;18.08;3.70;;;;;;;33.12;29.43;99256.13;7764218;32;39959;-73
2022/08/19 14:07:37;;;;;;;14.68;3.75;;;;;;;32.19;31.58;99254.03;7763997;32;39129;-76
2022/08/19 14:11:53;;;;;;;10.95;3.37;;;;;;;32.24;31.68;99246.31;7763631;32;36778;-77
2022/08/19 14:16:11;;;;;;;19.55;3.60;;;;;;;32.05;31.28;99248.66;7761416;32;39933;-76
2022/08/19 14:20:27;;;;;;;16.12;3.60;;;;;;;31.85;31.13;99256.25;7762498;32;39887;-78
2022/08/19 14:24:44;;;;;;;12.10;3.30;;;;;;;31.55;31.88;99243.91;7781617;32;37934;-77
2022/08/19 14:29:03;;;;;;;11.23;3.45;;;;;;;32.00;30.90;99257.59;7775447;32;36697;-78
2022/08/19 14:33:22;;;;;;;14.00;3.30;;;;;;;32.14;30.31;99257.34;7766684;32;39697;-78
2022/08/19 14:37:44;;;;;;;12.27;3.10;;;;;;;32.13;30.24;99247.31;7762757;32;39741;-78
2022/08/19 14:42:01;;;;;;;14.40;3.40;;;;;;;32.36;29.46;99245.66;7772693;32;38524;-77
2022/08/19 14:46:21;;;;;;;9.90;2.90;;;;;;;32.66;30.25;99236.16;7793666;32;37741;-78
2022/08/19 14:50:37;;;;;;;13.48;2.75;;;;;;;32.82;26.70;99238.22;7793724;32;39200;-78
2022/08/19 14:54:53;;;;;;;12.37;3.33;;;;;;;32.93;26.88;99235.97;7782687;32;40030;-80
2022/08/19 14:59:10;;;;;;;14.73;2.67;;;;;;;33.26;26.70;99221.91;7766303;32;38030;-81
2022/08/19 15:03:27;;;;;;;14.55;2.30;;;;;;;32.89;28.04;99221.16;7766601;32;37727;-81
2022/08/19 15:07:43;;;;;;;12.20;2.70;;;;;;;32.42;29.16;99224.16;7766344;32;39768;-77
2022/08/19 15:12:01;;;;;;;13.85;2.47;;;;;;;32.86;26.32;99213.56;7765964;32;39988;-77
2022/08/19 15:16:20;;;;;;;20.23;2.80;;;;;;;33.44;26.33;99200.91;7766175;32;37613;-80
2022/08/19 15:20:36;;;;;;;11.27;3.30;;;;;;;33.50;25.67;99208.41;7766157;32;37016;-80
2022/08/19 15:24:54;;;;;;;14.05;2.67;;;;;;;33.73;25.62;99215.13;7765704;32;39312;-80
2022/08/19 15:29:16;;;;;;;14.40;2.65;;;;;;;33.33;25.97;99214.53;7766195;32;40815;-80
2022/08/19 15:33:36;;;;;;;9.43;2.97;;;;;;;32.93;26.47;99223.91;7765417;32;38010;-80
2022/08/19 15:37:53;;;;;;;9.80;2.92;;;;;;;32.44;28.12;99235.78;7766228;32;37086;-77
2022/08/19 15:42:09;;;;;;;13.70;2.62;;;;;;;32.51;27.14;99252.59;7765624;32;39991;-74
2022/08/19 15:46:32;;;;;;;9.50;2.37;;;;;;;32.00;27.71;99254.78;7765628;32;40761;-74
2022/08/19 15:50:48;;;;;;;11.73;2.75;;;;;;;31.96;26.15;99262.47;7766078;32;37928;-73
2022/08/19 15:55:06;;;;;;;13.55;2.80;;;;;;;31.73;26.33;99269.72;7765993;32;36976;-74
2022/08/19 16:08:36;;;;;;;10.48;2.92;;;;;;;32.01;26.44;99202.78;7777610;32;37838;-75
2022/08/19 16:13:04;;;;;;;20.12;8.93;;;;;;;32.08;26.54;99151.97;7765813;32;37122;-76
2022/08/19 16:17:21;;;;;;;17.95;3.55;;;;;;;31.95;26.97;99136.88;7765718;32;39392;-75
2022/08/19 16:21:38;;;;;;;8.65;2.30;;;;;;;31.85;26.99;99171.72;7765535;32;39846;-75
2022/08/19 16:25:56;;;;;;;9.75;3.20;;;;;;;32.18;26.73;99161.41;7765499;32;39037;-75
2022/08/19 16:30:12;;;;;;;15.88;2.85;;;;;;;32.22;26.67;99156.50;7777290;32;38190;-75
2022/08/19 16:34:29;;;;;;;15.15;3.30;;;;;;;31.95;26.46;99153.81;7776261;32;39844;-75
2022/08/19 16:38:45;;;;;;;15.00;4.22;;;;;;;31.85;26.73;99149.97;7777021;32;39881;-76
2022/08/19 16:43:01;;;;;;;16.52;3.20;;;;;;;31.93;26.92;99154.22;7792446;32;37780;-76
2022/08/19 16:47:17;;;;;;;12.93;2.67;;;;;;;31.50;27.54;99173.97;7791318;32;37018;-74
2022/08/19 16:51:34;;;;;;;14.25;3.05;;;;;;;31.34;27.49;99209.19;7776622;32;39337;-75
2022/08/19 16:55:52;;;;;;;9.23;2.40;;;;;;;31.58;27.34;99217.66;7765125;32;40462;-75
2022/08/19 17:00:13;;;;;;;10.25;2.65;;;;;;;31.52;27.50;99222.22;7764973;32;37871;-74
2022/08/19 17:04:30;;;;;;;13.10;2.75;;;;;;;31.27;27.54;99240.28;7765097;32;37941;-74
2022/08/19 17:08:48;;;;;;;13.50;2.90;;;;;;;31.32;27.41;99242.62;7764743;32;39213;-74
2022/08/19 17:13:05;;;;;;;12.68;3.20;;;;;;;31.32;27.43;99231.37;7764845;32;39956;-74
2022/08/19 17:17:21;;;;;;;18.70;5.12;;;;;;;31.31;26.94;99265.56;7765213;32;38048;-74
2022/08/19 17:21:44;;;;;;;14.82;3.35;;;;;;;30.82;28.09;99319.28;7772496;32;37067;-73
2022/08/19 17:26:00;;;;;;;13.38;2.53;;;;;;;30.27;30.80;99350.00;7777263;32;39317;-73
2022/08/19 17:30:16;;;;;;;13.07;2.72;;;;;;;30.33;30.15;99353.94;7781464;32;39697;-73
2022/08/19 17:34:33;;;;;;;9.70;2.90;;;;;;;30.65;29.74;99335.97;7764667;32;37883;-75
2022/08/19 17:38:50;;;;;;;10.52;3.05;;;;;;;30.99;29.30;99340.00;7764669;32;36703;-76
2022/08/19 17:43:07;;;;;;;14.50;3.37;;;;;;;30.32;31.24;99343.94;7764580;32;39442;-80
2022/08/19 17:47:24;;;;;;;9.65;2.67;;;;;;;30.11;30.84;99311.22;7770157;32;39914;-82
2022/08/19 17:51:45;;;;;;;6.55;2.50;;;;;;;29.85;31.05;99295.78;7783583;32;37963;-77
2022/08/19 17:56:01;;;;;;;15.52;3.12;;;;;;;29.64;31.87;99265.84;7777730;32;35890;-77
2022/08/19 18:00:18;;;;;;;10.38;3.70;;;;;;;29.44;33.46;99217.88;7772911;32;39274;-77
2022/08/19 18:04:37;;;;;;;16.33;3.78;;;;;;;29.42;33.86;99175.38;7764700;32;39951;-80
2022/08/19 18:08:53;;;;;;;14.27;3.30;;;;;;;29.68;33.83;99134.59;7750948;32;455730;-75
2022/08/19 18:13:10;;;;;;;11.50;3.17;;;;;;;29.76;33.40;99127.72;7769414;32;36885;-75
2022/08/19 18:17:33;;;;;;;10.45;3.12;;;;;;;29.89;32.88;99128.00;7789023;32;39349;-74
2022/08/19 18:21:49;;;;;;;14.02;3.95;;;;;;;29.95;31.95;99137.56;7788362;32;39700;-74
2022/08/19 18:26:05;;;;;;;15.52;4.47;;;;;;;28.79;34.43;99139.78;7781825;32;37529;-75
2022/08/19 18:30:23;;;;;;;10.00;3.67;;;;;;;29.58;33.15;99122.28;7763119;32;37735;-76
2022/08/19 18:34:43;;;;;;;10.57;4.03;;;;;;;29.72;32.78;99140.22;7763577;32;39159;-75
2022/08/19 18:52:48;;;;;;;11.32;3.72;;;;;;;27.26;49.12;99276.19;7778413;32;38616;-76
2022/08/19 18:57:04;;;;;;;13.35;4.40;;;;;;;27.31;48.84;99262.63;7789171;32;39916;-76
2022/08/19 19:01:29;;;;;;;12.00;4.82;;;;;;;27.14;52.86;99300.53;7789650;32;38041;-74
2022/08/19 19:05:47;;;;;;;14.90;4.15;;;;;;;26.98;51.89;99362.44;7762034;32;37033;-74
2022/08/19 19:10:03;;;;;;;19.33;4.37;;;;;;;26.24;51.27;99372.75;7749074;32;39964;-74
2022/08/19 19:14:24;;;;;;;15.00;4.85;;;;;;;26.70;50.72;99384.66;7766101;32;39990;-74
2022/08/19 19:19:00;;;;;;;12.68;4.03;;;;;;;26.82;49.94;99406.72;7766367;32;38965;-74
2022/08/19 19:23:16;;;;;;;14.75;4.50;;;;;;;25.89;49.33;99445.03;7789561;32;37064;-74
2022/08/19 19:27:32;;;;;;;15.27;4.62;;;;;;;25.52;50.50;99446.66;7789533;32;39287;-76
2022/08/19 19:31:51;;;;;;;13.32;5.43;;;;;;;25.36;52.40;99437.72;7773383;32;40837;-74
2022/08/19 19:36:08;;;;;;;12.75;4.22;;;;;;;25.59;53.27;99437.56;7781607;32;38759;-75
2022/08/19 19:40:24;;;;;;;12.00;4.43;;;;;;;25.63;53.55;99404.91;7793086;32;37085;-74
2022/08/19 19:44:42;;;;;;;14.13;4.43;;;;;;;25.76;55.92;99392.28;7793166;32;39165;-71
2022/08/19 19:49:03;;;;;;;14.00;3.45;;;;;;;25.46;54.55;99348.53;7790232;32;40889;-72
2022/08/19 19:53:19;;;;;;;8.60;3.10;;;;;;;25.60;50.72;99316.38;7783796;32;37650;-73
2022/08/19 19:57:38;;;;;;;11.63;3.95;;;;;;;25.54;54.57;99337.44;7785182;32;37707;-73
2022/08/19 20:01:55;;;;;;;12.82;4.35;;;;;;;25.25;56.90;99328.75;7779465;32;39304;-73
2022/08/19 20:06:16;;;;;;;15.93;4.22;;;;;;;25.17;58.38;99343.81;7784293;32;39901;-73
2022/08/19 20:10:33;;;;;;;7.30;3.85;;;;;;;25.16;58.21;99342.22;7782903;32;37652;-72
2022/08/19 20:14:49;;;;;;;11.95;4.80;;;;;;;25.05;56.91;99369.97;7793026;32;36947;-72
2022/08/19 20:19:06;;;;;;;14.10;4.43;;;;;;;24.88;59.66;99335.91;7779116;32;39177;-72
2022/08/19 20:23:22;;;;;;;13.25;3.85;;;;;;;24.34;60.46;99314.87;7792653;32;39945;-72
2022/08/19 20:27:39;;;;;;;13.73;4.22;;;;;;;24.80;59.88;99291.59;7792789;32;37943;-73
2022/08/19 20:31:57;;;;;;;17.10;4.78;;;;;;;24.44;60.68;99279.97;7793092;32;35309;-72
2022/08/19 20:36:14;;;;;;;12.25;5.07;;;;;;;24.10;62.44;99293.84;7753078;32;39681;-72
2022/08/19 20:40:32;;;;;;;18.70;4.28;;;;;;;24.22;62.44;99329.81;7765692;32;39863;-72
2022/08/19 20:44:49;;;;;;;20.37;3.80;;;;;;;23.94;61.71;99380.28;7765525;32;36918;-71
2022/08/19 20:49:05;;;;;;;15.32;3.87;;;;;;;23.29;64.57;99470.88;7788971;32;37077;-72
2022/08/19 20:53:22;;;;;;;22.83;5.10;;;;;;;23.09;64.16;99474.78;7792536;32;39256;-72